METAR Data
IDs: Format: Raw Decoded Include TAF

Data at: 2034 UTC 01 Oct 2022

LIBA 011955Z 25007KT 9999 FEW040 17/11 Q1018 RMK FEW VIS MIN 9999 WIND THR11 25010KT WIND THR29 /////KT BLU

LIBC 011750Z 23013KT CAVOK 23/14 Q1017

LIBD 012020Z 28011KT 250V310 CAVOK 20/09 Q1017

LIBF 011950Z 28006KT CAVOK 16/11 Q1018

LIBG 011750Z 30005KT 260V330 9999 SCT020 23/15 Q1015

LIBP 012020Z AUTO VRB02KT 9999 FEW003/// 15/14 Q1018

LIBR 012020Z 28008KT 9999 FEW030 21/16 Q1017

LIBV 011955Z 29008KT CAVOK 17/09 Q1017 RMK FEW FEW100 VIS MIN 9999 WIND THR32 31007KT WIND THR14 30009KT BLU

LICA 012020Z AUTO 28019KT 9999 SCT044/// 21/12 Q1021

LICC 012020Z VRB02KT CAVOK 22/12 Q1020

LICD 012020Z AUTO 34016KT 9999 NCD 23/15 Q1024

LICG 011750Z 33013KT CAVOK 21/14 Q1024

LICJ 012020Z 28009KT 9999 SCT045 23/15 Q1023

LICR 012020Z AUTO 01012KT 350V050 9999 BKN043/// 22/14 Q1021

LICT 011955Z 33013KT 9999 FEW025 24/14 Q1023 RMK FEW VIS MIN 9999 WIND THR13 34014KT BLU

LICZ 011955Z /////KT 9999 FEW020 22/16 Q1019

LIEA 012020Z 29003KT 250V340 9999 FEW030 20/15 Q1025

LIEE 012020Z 34005KT 9999 SCT040 19/13 Q1025

LIED 011955Z 24003KT 9999 FEW040 19/12 Q1024 RMK FEW VIS MIN 9999 WIND THR35 /////KT WIND THR17 21002KT BLU

LIEO 012020Z 25019G29KT CAVOK 21/13 Q1022

LIPR 012020Z AUTO VRB01KT 9999 NCD 13/11 Q1017

LIPY 012020Z AUTO 24008KT 9999 NCD 15/10 Q1018

LIRA 012020Z 32005KT CAVOK 17/12 Q1021

LIRE 011955Z 33005KT CAVOK 18/14 Q1021 RMK SKC VIS MIN 9999 WIND THR13 36004KT WIND THR31/////KT BLU

LIRF 012020Z 06003KT 010V100 CAVOK 17/13 Q1021 NOSIG

No METAR found for LIRG

No METAR found for LIRH

No METAR found for LIRL

LIRM 011955Z 15002KT 9999 FEW030 17/13 Q1020 RMK FEW VIS MIN 9999 WIND THR06 29005KT BLU

LIRN 012020Z 34005KT 9999 FEW040 18/14 Q1021 NOSIG

LIRP 012015Z 23018KT 9999 SCT025 BKN040 18/14 Q1020 NOSIG

LIRQ 012020Z 08005KT 9999 BKN030 16/13 Q1020

LIRS 011955Z 09003KT CAVOK 15/13 Q1020 RMK SKC VIS MIN 9999 WIND THR03 11003KT WIND THR21 09003KT BLU

LIRZ 012020Z AUTO 20004KT 9999 NCD 15/11 Q1022

LMML 012015Z 32015KT CAVOK 23/17 Q1022 NOSIG

DTTA 012000Z 29006KT 9999 FEW026 21/12 Q1026

DTTJ 012000Z 03019KT 9999 FEW030 25/17 Q1024 NOSIG